createdAt,value
2019-05-01T00:01:27.692Z,99.90
2019-05-01T00:04:16.819Z,99.90
2019-05-01T00:06:48.196Z,99.90
2019-05-01T00:09:16.069Z,99.90
2019-05-01T00:11:43.880Z,99.90
2019-05-01T00:14:11.613Z,99.90
2019-05-01T00:16:41.607Z,99.90
2019-05-01T00:19:12.553Z,99.90
2019-05-01T00:22:02.972Z,99.90
2019-05-01T00:24:44.591Z,99.90
2019-05-01T00:27:14.454Z,99.90
2019-05-01T00:29:50.960Z,99.90
2019-05-01T00:32:20.942Z,99.90
2019-05-01T00:34:50.637Z,99.90
2019-05-01T00:37:23.155Z,99.90
2019-05-01T00:39:51.233Z,99.90
2019-05-01T00:42:22.441Z,99.90
2019-05-01T00:44:52.784Z,99.90
2019-05-01T00:47:21.851Z,99.90
2019-05-01T00:49:53.215Z,99.90
2019-05-01T00:52:22.583Z,99.90
2019-05-01T00:54:52.643Z,99.90
2019-05-01T00:57:34.536Z,99.90
2019-05-01T01:00:42.914Z,99.90
2019-05-01T01:03:06.362Z,99.90
2019-05-01T01:05:35.610Z,99.90
2019-05-01T01:08:04.503Z,99.90
2019-05-01T01:10:32.568Z,99.90
2019-05-01T01:13:02.727Z,99.90
2019-05-01T01:15:35.212Z,99.90
2019-05-01T01:18:11.615Z,99.90
2019-05-01T01:20:47.552Z,99.90
2019-05-01T01:23:15.880Z,99.90
2019-05-01T01:25:47.551Z,99.90
2019-05-01T01:28:19.379Z,99.90
2019-05-01T01:30:56.690Z,99.90
2019-05-01T01:33:24.782Z,99.90
2019-05-01T01:35:54.623Z,99.90
2019-05-01T01:38:27.352Z,99.90
2019-05-01T01:41:04.086Z,99.90
2019-05-01T01:44:09.934Z,99.90
2019-05-01T01:46:43.084Z,99.90
2019-05-01T01:49:11.474Z,99.90
2019-05-01T01:51:41.729Z,99.90
2019-05-01T01:54:09.533Z,99.90
2019-05-01T01:56:38.779Z,99.90
2019-05-01T01:59:10.814Z,99.90
2019-05-01T02:01:56.707Z,99.90
2019-05-01T02:04:39.391Z,99.90
2019-05-01T02:07:07.198Z,99.90
2019-05-01T02:09:36.906Z,99.90
2019-05-01T02:12:06.742Z,99.90
2019-05-01T02:14:45.480Z,99.90
2019-05-01T02:17:18.554Z,99.90
2019-05-01T02:19:47.662Z,99.90
2019-05-01T02:22:19.045Z,99.90
2019-05-01T02:24:48.811Z,99.90
2019-05-01T02:27:26.135Z,99.90
2019-05-01T02:29:58.272Z,99.90
2019-05-01T02:32:30.231Z,99.90
2019-05-01T02:34:59.943Z,99.90
2019-05-01T02:37:36.109Z,99.90
2019-05-01T02:40:25.957Z,99.90
2019-05-01T02:42:55.902Z,99.90
2019-05-01T02:45:25.335Z,99.90
2019-05-01T02:47:56.275Z,99.90
2019-05-01T02:50:27.233Z,99.90
2019-05-01T02:52:55.379Z,99.90
2019-05-01T02:55:31.496Z,99.90
2019-05-01T02:57:59.980Z,99.90
2019-05-01T03:00:28.478Z,99.90
2019-05-01T03:02:58.519Z,99.90
2019-05-01T03:05:26.299Z,99.90
2019-05-01T03:07:58.059Z,99.90
2019-05-01T03:10:26.689Z,99.90
2019-05-01T03:12:57.072Z,99.90
2019-05-01T03:15:27.503Z,99.90
2019-05-01T03:18:30.025Z,99.90
2019-05-01T03:21:11.876Z,99.90
2019-05-01T03:23:46.600Z,99.90
2019-05-01T03:26:22.828Z,99.90
2019-05-01T03:28:50.812Z,99.90
2019-05-01T03:31:19.013Z,99.90
2019-05-01T03:33:47.200Z,99.90
2019-05-01T03:36:17.552Z,99.90
2019-05-01T03:38:45.807Z,99.90
2019-05-01T03:41:15.455Z,99.90
2019-05-01T03:43:43.606Z,99.90
2019-05-01T03:46:11.503Z,99.90
2019-05-01T03:48:39.591Z,99.90
2019-05-01T03:51:10.745Z,99.90
2019-05-01T03:53:41.953Z,99.90
2019-05-01T03:56:11.517Z,99.90
2019-05-01T03:58:42.278Z,99.90
2019-05-01T04:01:22.157Z,99.90
2019-05-01T04:03:59.013Z,99.90
2019-05-01T04:06:30.519Z,99.90
2019-05-01T04:08:59.387Z,99.90
2019-05-01T04:11:27.652Z,99.90
2019-05-01T04:13:56.599Z,99.90
2019-05-01T04:16:27.198Z,99.90
2019-05-01T04:18:57.903Z,99.90
2019-05-01T04:21:32.049Z,99.90
2019-05-01T04:24:00.599Z,99.90
2019-05-01T04:26:37.939Z,99.90
2019-05-01T04:29:31.326Z,99.90
2019-05-01T04:32:06.654Z,99.90
2019-05-01T04:35:00.662Z,99.90
2019-05-01T04:37:28.691Z,99.90
2019-05-01T04:39:58.570Z,99.90
2019-05-01T04:42:26.460Z,99.90
2019-05-01T04:44:56.580Z,99.90
2019-05-01T04:47:24.574Z,99.90
2019-05-01T04:49:53.666Z,99.90
2019-05-01T04:52:21.339Z,99.90
2019-05-01T04:54:50.891Z,99.90
2019-05-01T04:57:31.419Z,99.90
2019-05-01T05:00:00.063Z,99.90
2019-05-01T05:02:36.767Z,99.90
2019-05-01T05:05:07.552Z,99.90
2019-05-01T05:07:35.742Z,99.90
2019-05-01T05:10:08.567Z,99.90
2019-05-01T05:12:47.947Z,99.90
2019-05-01T05:15:34.369Z,99.90
2019-05-01T05:17:59.664Z,99.90
2019-05-01T05:20:27.759Z,99.90
2019-05-01T05:22:57.837Z,99.90
2019-05-01T05:25:27.975Z,99.90
2019-05-01T05:27:59.428Z,99.90
2019-05-01T05:30:31.245Z,99.90
2019-05-01T05:33:02.467Z,99.90
2019-05-01T05:35:32.128Z,99.90
2019-05-01T05:38:20.513Z,99.90
2019-05-01T05:40:49.340Z,99.90
2019-05-01T05:43:18.333Z,99.90
2019-05-01T05:45:46.710Z,99.90
2019-05-01T05:48:14.830Z,99.90
2019-05-01T05:50:57.349Z,99.90
2019-05-01T05:53:29.310Z,99.90
2019-05-01T05:56:01.805Z,99.90
2019-05-01T05:58:44.773Z,99.90
2019-05-01T06:01:32.946Z,99.90
2019-05-01T06:04:35.021Z,99.90
2019-05-01T06:07:21.596Z,99.90
2019-05-01T06:10:23.227Z,99.90
2019-05-01T06:13:04.681Z,99.90
2019-05-01T06:15:49.296Z,99.90
2019-05-01T06:18:49.583Z,99.90
2019-05-01T06:21:25.719Z,99.90
2019-05-01T06:24:13.286Z,99.90
2019-05-01T06:26:43.966Z,99.90
2019-05-01T06:29:11.909Z,99.90
2019-05-01T06:31:41.233Z,99.90
2019-05-01T06:34:11.195Z,99.90
2019-05-01T06:36:44.311Z,99.90
2019-05-01T06:39:17.632Z,99.90
2019-05-01T06:41:52.735Z,99.90
2019-05-01T06:44:33.353Z,99.90
2019-05-01T06:47:43.022Z,99.90
2019-05-01T06:51:12.914Z,99.90
2019-05-01T06:53:55.105Z,99.90
2019-05-01T06:56:35.198Z,99.90
2019-05-01T06:59:04.124Z,99.90
2019-05-01T07:01:44.581Z,99.90
2019-05-01T07:04:51.263Z,99.90
2019-05-01T07:08:24.727Z,99.90
2019-05-01T07:11:35.203Z,99.90
2019-05-01T07:14:04.589Z,99.90
2019-05-01T07:16:37.882Z,99.90
2019-05-01T07:19:07.036Z,99.90
2019-05-01T07:21:39.598Z,99.90
2019-05-01T07:24:07.709Z,99.90
2019-05-01T07:26:39.033Z,99.90
2019-05-01T07:29:11.079Z,99.90
2019-05-01T07:31:39.466Z,99.90
2019-05-01T07:34:16.306Z,99.90
2019-05-01T07:36:41.177Z,99.90
2019-05-01T07:39:14.653Z,99.90
2019-05-01T07:42:07.805Z,99.90
2019-05-01T07:44:41.896Z,99.90
2019-05-01T07:47:30.429Z,99.90
2019-05-01T07:50:07.387Z,99.90
2019-05-01T07:52:37.291Z,99.90
2019-05-01T07:55:12.972Z,99.90
2019-05-01T07:57:41.290Z,99.90
2019-05-01T08:00:21.537Z,99.90
2019-05-01T08:02:53.422Z,99.90
2019-05-01T08:05:26.258Z,99.90
2019-05-01T08:08:02.923Z,99.90
2019-05-01T08:10:31.512Z,99.90
2019-05-01T08:13:00.259Z,99.90
2019-05-01T08:15:32.488Z,99.90
2019-05-01T08:18:27.793Z,99.90
2019-05-01T08:21:00.764Z,99.90
2019-05-01T08:23:29.952Z,99.90
2019-05-01T08:26:53.577Z,99.90
2019-05-01T08:33:28.355Z,99.90
2019-05-01T08:36:21.510Z,99.90
2019-05-01T08:39:09.117Z,99.90
2019-05-01T08:41:52.100Z,99.90
2019-05-01T08:44:24.800Z,99.90
2019-05-01T08:47:00.268Z,99.90
2019-05-01T08:49:51.506Z,99.90
2019-05-01T08:52:24.666Z,99.90
2019-05-01T08:54:54.702Z,99.90
2019-05-01T08:57:22.237Z,99.90
2019-05-01T09:03:37.935Z,99.90
2019-05-01T09:06:06.415Z,99.90
2019-05-01T09:08:34.831Z,99.90
2019-05-01T09:11:09.890Z,99.90
2019-05-01T09:13:37.816Z,99.90
2019-05-01T09:16:10.354Z,99.90
2019-05-01T09:18:43.962Z,99.90
2019-05-01T09:21:33.150Z,99.90
2019-05-01T09:24:05.828Z,99.90
2019-05-01T09:26:45.352Z,99.90
2019-05-01T09:29:28.463Z,99.90
2019-05-01T09:32:14.097Z,99.90
2019-05-01T09:34:53.546Z,99.90
2019-05-01T09:37:30.276Z,99.90
2019-05-01T09:40:09.233Z,99.90
2019-05-01T09:43:18.239Z,99.90
2019-05-01T09:49:18.362Z,99.90
2019-05-01T09:52:05.273Z,99.90
2019-05-01T09:54:48.133Z,99.90
2019-05-01T09:57:42.736Z,99.90
2019-05-01T10:00:41.129Z,99.90
2019-05-01T10:03:39.696Z,99.80
2019-05-01T10:06:43.336Z,99.40
2019-05-01T10:09:16.656Z,99.90
2019-05-01T10:11:44.256Z,99.70
2019-05-01T10:14:27.237Z,99.90
2019-05-01T10:16:58.833Z,99.90
2019-05-01T10:27:00.093Z,98.90
2019-05-01T10:30:01.625Z,99.20
2019-05-01T10:32:38.027Z,99.10
2019-05-01T10:35:25.713Z,99.30
2019-05-01T10:38:04.791Z,98.80
2019-05-01T10:44:25.156Z,99.40
2019-05-01T10:46:50.817Z,99.80
2019-05-01T10:57:42.594Z,99.90
2019-05-01T11:00:12.708Z,99.90
2019-05-01T11:02:43.019Z,99.90
2019-05-01T11:05:12.505Z,99.90
2019-05-01T11:08:44.222Z,99.40
2019-05-01T11:11:00.287Z,99.10
2019-05-01T11:13:37.273Z,98.60
2019-05-01T11:16:22.055Z,98.60
2019-05-01T11:18:51.867Z,99.30
2019-05-01T11:21:19.946Z,98.50
2019-05-01T11:23:54.950Z,98.80
2019-05-01T11:26:25.333Z,98.50
2019-05-01T11:36:39.091Z,98.00
2019-05-01T11:39:26.231Z,98.00
2019-05-01T11:42:12.718Z,97.90
2019-05-01T11:44:40.607Z,96.90
2019-05-01T11:47:10.515Z,96.80
2019-05-01T11:49:42.398Z,96.20
2019-05-01T11:52:13.396Z,96.40
2019-05-01T11:54:51.203Z,95.40
2019-05-01T11:57:22.750Z,95.00
2019-05-01T12:00:07.148Z,96.00
2019-05-01T12:06:22.634Z,96.60
2019-05-01T12:08:45.460Z,96.10
2019-05-01T12:11:13.385Z,95.20
2019-05-01T12:13:44.135Z,95.10
2019-05-01T12:20:08.919Z,94.90
2019-05-01T12:22:37.792Z,94.70
2019-05-01T12:25:56.413Z,95.30
2019-05-01T12:28:47.345Z,95.60
2019-05-01T12:31:21.919Z,95.40
2019-05-01T12:34:01.706Z,96.50
2019-05-01T12:36:44.978Z,96.80
2019-05-01T12:39:15.052Z,96.10
2019-05-01T12:41:58.442Z,96.20
2019-05-01T12:44:34.822Z,96.00
2019-05-01T12:47:32.401Z,96.50
2019-05-01T12:50:02.482Z,95.90
2019-05-01T12:53:02.747Z,96.20
2019-05-01T12:56:59.735Z,96.30
2019-05-01T13:00:23.097Z,96.20
2019-05-01T13:07:24.435Z,96.10
2019-05-01T13:09:59.338Z,96.30
2019-05-01T13:12:27.538Z,96.40
2019-05-01T13:15:15.130Z,96.20
2019-05-01T13:18:00.571Z,96.70
2019-05-01T13:21:26.227Z,96.80
2019-05-01T13:23:56.460Z,96.50
2019-05-01T13:26:36.437Z,96.50
2019-05-01T13:29:23.655Z,96.30
2019-05-01T13:32:27.540Z,96.60
2019-05-01T13:34:57.078Z,96.90
2019-05-01T13:37:26.657Z,96.50
2019-05-01T13:39:57.584Z,97.60
2019-05-01T13:42:34.723Z,97.10
2019-05-01T13:45:11.975Z,96.90
2019-05-01T13:47:41.622Z,96.30
2019-05-01T13:50:13.506Z,96.00
2019-05-01T13:52:42.308Z,96.70
2019-05-01T13:56:13.175Z,97.40
2019-05-01T13:59:17.431Z,97.00
2019-05-01T14:01:51.807Z,97.10
2019-05-01T14:05:28.502Z,96.70
2019-05-01T14:09:03.208Z,96.90
2019-05-01T14:11:56.516Z,96.60
2019-05-01T14:14:36.898Z,96.80
2019-05-01T14:17:05.048Z,97.00
2019-05-01T14:19:35.967Z,97.00
2019-05-01T14:22:19.197Z,97.20
2019-05-01T14:31:56.758Z,97.40
2019-05-01T14:34:41.824Z,97.60
2019-05-01T14:37:43.468Z,97.40
2019-05-01T14:40:24.926Z,96.90
2019-05-01T14:42:56.483Z,96.80
2019-05-01T14:45:26.755Z,96.60
2019-05-01T14:47:55.229Z,96.70
2019-05-01T14:50:23.951Z,96.90
2019-05-01T14:52:51.809Z,96.70
2019-05-01T14:55:21.566Z,97.00
2019-05-01T15:02:18.177Z,96.80
2019-05-01T15:04:49.958Z,97.20
2019-05-01T15:07:22.540Z,97.20
2019-05-01T15:09:53.582Z,97.30
2019-05-01T15:12:30.502Z,97.30
2019-05-01T15:15:23.449Z,97.30
2019-05-01T15:18:33.542Z,97.20
2019-05-01T15:22:23.597Z,97.20
2019-05-01T15:32:00.319Z,97.50
2019-05-01T15:34:40.674Z,97.90
2019-05-01T15:37:11.043Z,97.70
2019-05-01T15:39:55.194Z,97.80
2019-05-01T15:42:32.749Z,98.10
2019-05-01T15:45:00.954Z,98.10
2019-05-01T15:47:40.590Z,97.70
2019-05-01T15:50:12.518Z,97.60
2019-05-01T15:53:28.111Z,96.90
2019-05-01T15:56:27.378Z,96.90
2019-05-01T15:59:08.225Z,97.00
2019-05-01T16:01:40.591Z,97.00
2019-05-01T16:04:10.879Z,96.70
2019-05-01T16:06:44.437Z,96.90
2019-05-01T16:09:18.900Z,97.40
2019-05-01T16:15:37.350Z,97.70
2019-05-01T16:18:18.787Z,97.40
2019-05-01T16:20:48.769Z,97.40
2019-05-01T16:23:16.475Z,97.30
2019-05-01T16:26:01.017Z,97.40
2019-05-01T16:28:30.729Z,97.40
2019-05-01T16:31:03.209Z,97.80
2019-05-01T16:33:37.663Z,97.60
2019-05-01T16:36:20.388Z,97.50
2019-05-01T16:39:48.027Z,98.10
2019-05-01T16:42:16.549Z,98.70
2019-05-01T16:45:06.104Z,98.50
2019-05-01T16:48:08.317Z,98.40
2019-05-01T16:51:12.740Z,98.60
2019-05-01T16:53:43.156Z,98.80
2019-05-01T16:56:19.059Z,99.30
2019-05-01T16:58:49.833Z,99.50
2019-05-01T17:02:10.279Z,99.80
2019-05-01T17:05:24.227Z,99.60
2019-05-01T17:07:50.103Z,99.80
2019-05-01T17:11:12.309Z,99.80
2019-05-01T17:13:44.014Z,99.90
2019-05-01T17:17:26.353Z,99.90
2019-05-01T17:20:00.122Z,99.90
2019-05-01T17:22:28.051Z,99.90
2019-05-01T17:24:56.537Z,99.90
2019-05-01T17:27:42.551Z,99.90
2019-05-01T17:30:16.567Z,99.90
2019-05-01T17:32:48.163Z,99.90
2019-05-01T17:35:16.569Z,99.90
2019-05-01T17:38:00.682Z,99.90
2019-05-01T17:47:57.863Z,99.90
2019-05-01T17:50:30.026Z,99.90
2019-05-01T17:54:07.819Z,99.90
2019-05-01T18:00:36.055Z,99.90
2019-05-01T18:03:58.189Z,99.90
2019-05-01T18:07:18.251Z,99.90
2019-05-01T18:13:59.541Z,99.90
2019-05-01T18:16:29.475Z,99.90
2019-05-01T18:19:25.024Z,99.90
2019-05-01T18:22:26.769Z,99.90
2019-05-01T18:25:34.952Z,99.90
2019-05-01T18:28:49.465Z,99.90
2019-05-01T18:31:36.219Z,99.90
2019-05-01T18:34:15.242Z,99.90
2019-05-01T18:37:14.108Z,99.90
2019-05-01T18:44:11.396Z,99.90
2019-05-01T18:46:48.590Z,99.90
2019-05-01T18:49:44.520Z,99.90
2019-05-01T18:52:18.112Z,99.90
2019-05-01T18:59:19.521Z,99.90
2019-05-01T19:02:04.295Z,99.90
2019-05-01T19:04:55.842Z,99.90
2019-05-01T19:08:29.306Z,99.90
2019-05-01T19:14:17.999Z,99.90
2019-05-01T19:16:47.124Z,99.90
2019-05-01T19:19:15.620Z,99.90
2019-05-01T19:21:57.106Z,99.90
2019-05-01T19:24:26.223Z,99.90
2019-05-01T19:26:58.618Z,99.90
2019-05-01T19:29:36.434Z,99.90
2019-05-01T19:33:01.706Z,99.90
2019-05-01T19:35:40.325Z,99.90
2019-05-01T19:38:09.440Z,99.90
2019-05-01T19:40:37.608Z,99.90
2019-05-01T19:43:26.977Z,99.90
2019-05-01T19:46:03.891Z,99.90
2019-05-01T19:48:45.557Z,99.90
2019-05-01T19:51:23.842Z,99.90
2019-05-01T19:53:53.532Z,99.90
2019-05-01T19:56:29.927Z,99.90
2019-05-01T19:59:07.256Z,99.90
2019-05-01T20:02:22.115Z,99.90
2019-05-01T20:05:02.354Z,99.90
2019-05-01T20:07:39.293Z,99.90
2019-05-01T20:10:10.918Z,99.90
2019-05-01T20:12:44.174Z,99.90
2019-05-01T20:15:14.930Z,99.90
2019-05-01T20:17:44.906Z,99.90
2019-05-01T20:20:14.634Z,99.90
2019-05-01T20:22:48.119Z,99.90
2019-05-01T20:25:23.554Z,99.90
2019-05-01T20:27:54.516Z,99.90
2019-05-01T20:30:29.282Z,99.90
2019-05-01T20:33:09.079Z,99.90
2019-05-01T20:35:48.607Z,99.90
2019-05-01T20:39:31.700Z,99.90
2019-05-01T20:41:46.195Z,99.90
2019-05-01T20:44:25.620Z,99.90
2019-05-01T20:47:02.605Z,99.90
2019-05-01T20:49:36.455Z,99.90
2019-05-01T20:52:04.503Z,99.90
2019-05-01T20:54:33.183Z,99.90
2019-05-01T20:57:35.253Z,99.90
2019-05-01T21:00:33.047Z,99.90
2019-05-01T21:03:03.575Z,99.90
2019-05-01T21:05:38.484Z,99.90
2019-05-01T21:08:23.384Z,99.90
2019-05-01T21:10:57.815Z,99.90
2019-05-01T21:13:26.648Z,99.90
2019-05-01T21:15:56.296Z,99.90
2019-05-01T21:18:26.069Z,99.90
2019-05-01T21:21:03.342Z,99.90
2019-05-01T21:23:47.955Z,99.90
2019-05-01T21:26:24.884Z,99.90
2019-05-01T21:29:00.804Z,99.90
2019-05-01T21:31:34.158Z,99.90
2019-05-01T21:34:27.260Z,99.90
2019-05-01T21:36:56.181Z,99.90
2019-05-01T21:39:28.957Z,99.90
2019-05-01T21:42:06.564Z,99.90
2019-05-01T21:44:44.866Z,99.90
2019-05-01T21:47:14.007Z,99.90
2019-05-01T21:49:42.937Z,99.90
2019-05-01T21:52:10.734Z,99.90
2019-05-01T21:54:39.279Z,99.90
2019-05-01T21:57:07.550Z,99.90
2019-05-01T21:59:39.816Z,99.90
2019-05-01T22:02:11.913Z,99.90
2019-05-01T22:04:39.869Z,99.90
2019-05-01T22:07:10.990Z,99.90
2019-05-01T22:09:39.282Z,99.90
2019-05-01T22:12:17.656Z,99.90
2019-05-01T22:14:59.105Z,99.90
2019-05-01T22:17:56.092Z,99.90
2019-05-01T22:20:36.282Z,99.90
2019-05-01T22:23:21.975Z,99.90
2019-05-01T22:25:59.171Z,99.90
2019-05-01T22:28:59.207Z,99.90
2019-05-01T22:31:52.873Z,99.90
2019-05-01T22:34:31.349Z,99.90
2019-05-01T22:36:59.147Z,99.90
2019-05-01T22:39:32.064Z,99.90
2019-05-01T22:42:03.839Z,99.90
2019-05-01T22:44:31.524Z,99.90
2019-05-01T22:47:03.370Z,99.90
2019-05-01T22:52:39.143Z,99.90
2019-05-01T22:55:06.985Z,99.90
2019-05-01T22:57:35.548Z,99.90
2019-05-01T23:00:04.377Z,99.90
2019-05-01T23:02:39.697Z,99.90
2019-05-01T23:05:14.786Z,99.90
2019-05-01T23:08:09.203Z,99.90
2019-05-01T23:10:41.811Z,99.90
2019-05-01T23:13:21.216Z,99.90
2019-05-01T23:16:00.734Z,99.90
2019-05-01T23:18:31.730Z,99.90
2019-05-01T23:21:02.703Z,99.90
2019-05-01T23:23:41.760Z,99.90
2019-05-01T23:26:32.052Z,99.90
2019-05-01T23:29:05.888Z,99.90
2019-05-01T23:31:42.940Z,99.90
2019-05-01T23:34:27.960Z,99.90
2019-05-01T23:36:52.629Z,99.90
2019-05-01T23:39:39.730Z,99.90
2019-05-01T23:42:54.255Z,99.90
2019-05-01T23:45:58.201Z,99.90
2019-05-01T23:48:29.859Z,99.90
2019-05-01T23:50:59.746Z,99.90
2019-05-01T23:53:27.683Z,99.90
2019-05-01T23:56:11.683Z,99.90
2019-05-01T23:58:57.317Z,99.90
